createdAt,value
2019-02-06T00:00:43.078Z,151.50
2019-02-06T00:01:43.044Z,156.20
2019-02-06T00:02:43.006Z,152.80
2019-02-06T00:03:42.969Z,163.40
2019-02-06T00:04:42.931Z,155.60
2019-02-06T00:05:42.895Z,161.40
2019-02-06T00:06:42.892Z,164.20
2019-02-06T00:07:42.821Z,158.60
2019-02-06T00:08:42.782Z,156.40
2019-02-06T00:09:42.747Z,157.20
2019-02-06T00:10:42.727Z,169.30
2019-02-06T00:11:42.674Z,163.60
2019-02-06T00:12:42.635Z,171.30
2019-02-06T00:13:42.600Z,171.20
2019-02-06T00:14:42.583Z,172.30
2019-02-06T00:15:42.527Z,161.60
2019-02-06T00:16:42.489Z,170.60
2019-02-06T00:17:42.452Z,161.70
2019-02-06T00:18:42.415Z,160.20
2019-02-06T00:19:42.380Z,169.10
2019-02-06T00:20:42.343Z,172.50
2019-02-06T00:21:42.305Z,169.80
2019-02-06T00:22:42.271Z,161.90
2019-02-06T00:23:42.232Z,159.80
2019-02-06T00:24:42.199Z,174.90
2019-02-06T00:25:42.156Z,187.10
2019-02-06T00:26:42.120Z,171.90
2019-02-06T00:27:42.083Z,180.80
2019-02-06T00:28:42.047Z,178.60
2019-02-06T00:29:42.008Z,186.30
2019-02-06T00:30:41.973Z,175.80
2019-02-06T00:31:41.934Z,185.90
2019-02-06T00:32:41.896Z,198.00
2019-02-06T00:33:41.859Z,176.00
2019-02-06T00:34:41.823Z,191.20
2019-02-06T00:35:41.787Z,182.10
2019-02-06T00:36:41.748Z,189.80
2019-02-06T00:37:41.712Z,185.90
2019-02-06T00:38:41.675Z,192.80
2019-02-06T00:39:41.636Z,193.20
2019-02-06T00:40:41.598Z,209.90
2019-02-06T00:41:41.563Z,183.40
2019-02-06T00:42:41.526Z,193.10
2019-02-06T00:43:41.488Z,202.00
2019-02-06T00:44:41.450Z,189.30
2019-02-06T00:45:41.413Z,193.80
2019-02-06T00:46:41.375Z,207.30
2019-02-06T00:47:41.341Z,198.60
2019-02-06T00:48:41.301Z,191.70
2019-02-06T00:49:41.264Z,187.90
2019-02-06T00:50:41.227Z,175.10
2019-02-06T00:51:41.189Z,168.00
2019-02-06T00:52:41.150Z,175.60
2019-02-06T00:53:41.114Z,172.10
2019-02-06T00:54:41.077Z,192.30
2019-02-06T00:55:41.040Z,178.50
2019-02-06T00:56:41.001Z,166.70
2019-02-06T00:57:40.964Z,183.40
2019-02-06T00:58:40.928Z,166.70
2019-02-06T00:59:40.890Z,162.50
2019-02-06T01:00:40.853Z,161.80
2019-02-06T01:01:40.817Z,164.10
2019-02-06T01:02:40.777Z,174.60
2019-02-06T01:03:40.743Z,172.50
2019-02-06T01:04:40.702Z,158.70
2019-02-06T01:05:40.664Z,179.80
2019-02-06T01:06:40.627Z,178.70
2019-02-06T01:07:40.589Z,190.90
2019-02-06T01:08:40.552Z,174.90
2019-02-06T01:09:40.516Z,178.10
2019-02-06T01:10:40.479Z,161.30
2019-02-06T01:11:40.440Z,166.50
2019-02-06T01:12:40.402Z,154.40
2019-02-06T01:13:40.366Z,152.90
2019-02-06T01:14:40.328Z,152.90
2019-02-06T01:15:40.290Z,165.40
2019-02-06T01:16:40.252Z,162.00
2019-02-06T01:17:40.220Z,165.50
2019-02-06T01:18:40.178Z,169.30
2019-02-06T01:19:40.141Z,164.30
2019-02-06T01:20:40.105Z,176.20
2019-02-06T01:21:40.066Z,175.80
2019-02-06T01:22:40.146Z,167.20
2019-02-06T01:23:39.993Z,163.00
2019-02-06T01:24:39.955Z,171.10
2019-02-06T01:25:39.916Z,182.30
2019-02-06T01:26:39.879Z,190.50
2019-02-06T01:27:39.843Z,171.00
2019-02-06T01:28:39.804Z,186.10
2019-02-06T01:29:39.768Z,182.60
2019-02-06T01:30:39.729Z,189.70
2019-02-06T01:31:39.691Z,171.30
2019-02-06T01:32:39.653Z,179.90
2019-02-06T01:33:39.617Z,180.30
2019-02-06T01:34:39.582Z,185.90
2019-02-06T01:35:49.598Z,162.40
2019-02-06T01:36:39.504Z,181.00
2019-02-06T01:37:39.468Z,185.50
2019-02-06T01:38:39.429Z,168.60
2019-02-06T01:39:39.391Z,171.60
2019-02-06T01:40:39.355Z,171.30
2019-02-06T01:41:39.317Z,170.20
2019-02-06T01:42:39.279Z,174.20
2019-02-06T01:43:39.242Z,171.30
2019-02-06T01:44:39.205Z,158.50
2019-02-06T01:45:39.168Z,188.40
2019-02-06T01:46:39.128Z,172.30
2019-02-06T01:47:39.096Z,176.10
2019-02-06T01:48:39.056Z,193.80
2019-02-06T01:49:39.017Z,169.90
2019-02-06T01:50:38.979Z,174.40
2019-02-06T01:51:38.942Z,166.40
2019-02-06T01:52:38.904Z,168.30
2019-02-06T01:53:38.867Z,172.50
2019-02-06T01:54:38.831Z,176.10
2019-02-06T01:55:38.792Z,192.40
2019-02-06T01:56:38.754Z,173.80
2019-02-06T01:57:38.719Z,171.60
2019-02-06T01:58:38.680Z,172.60
2019-02-06T01:59:38.643Z,186.10
2019-02-06T02:00:38.604Z,151.80
2019-02-06T02:01:38.567Z,168.60
2019-02-06T02:02:38.529Z,165.60
2019-02-06T02:03:38.493Z,177.40
2019-02-06T02:04:38.453Z,155.70
2019-02-06T02:05:38.417Z,157.40
2019-02-06T02:06:38.383Z,147.00
2019-02-06T02:07:38.343Z,146.00
2019-02-06T02:08:38.303Z,150.90
2019-02-06T02:09:38.270Z,141.10
2019-02-06T02:10:38.229Z,140.90
2019-02-06T02:11:38.197Z,151.40
2019-02-06T02:12:38.155Z,149.40
2019-02-06T02:13:38.118Z,269.20
2019-02-06T02:14:38.083Z,203.70
2019-02-06T02:15:38.044Z,286.80
2019-02-06T02:16:38.005Z,245.50
2019-02-06T02:17:37.968Z,172.70
2019-02-06T02:18:37.934Z,147.90
2019-02-06T02:19:37.895Z,141.00
2019-02-06T02:20:37.857Z,147.20
2019-02-06T02:21:37.820Z,135.90
2019-02-06T02:22:37.785Z,145.30
2019-02-06T02:23:37.749Z,144.30
2019-02-06T02:24:37.711Z,124.80
2019-02-06T02:25:37.674Z,148.40
2019-02-06T02:26:37.636Z,133.70
2019-02-06T02:27:37.600Z,130.90
2019-02-06T02:28:37.563Z,140.80
2019-02-06T02:29:37.529Z,138.20
2019-02-06T02:30:37.490Z,128.60
2019-02-06T02:31:37.458Z,134.70
2019-02-06T02:32:37.415Z,135.30
2019-02-06T02:33:37.393Z,128.10
2019-02-06T02:34:37.343Z,129.70
2019-02-06T02:35:37.309Z,148.40
2019-02-06T02:36:37.269Z,151.40
2019-02-06T02:37:37.234Z,141.80
2019-02-06T02:38:37.200Z,127.10
2019-02-06T02:39:37.162Z,128.60
2019-02-06T02:40:37.127Z,135.70
2019-02-06T02:41:37.088Z,132.10
2019-02-06T02:42:37.052Z,137.90
2019-02-06T02:43:37.016Z,157.10
2019-02-06T02:44:36.980Z,154.10
2019-02-06T02:45:36.945Z,131.70
2019-02-06T02:46:36.908Z,122.90
2019-02-06T02:47:36.872Z,138.20
2019-02-06T02:48:36.835Z,134.40
2019-02-06T02:49:36.801Z,119.90
2019-02-06T02:50:36.761Z,119.40
2019-02-06T02:51:36.728Z,126.60
2019-02-06T02:52:36.731Z,200.20
2019-02-06T02:53:36.652Z,144.30
2019-02-06T02:54:36.623Z,125.30
2019-02-06T02:55:36.583Z,122.50
2019-02-06T02:56:36.544Z,122.80
2019-02-06T02:57:36.508Z,129.80
2019-02-06T02:58:36.472Z,136.70
2019-02-06T02:59:36.436Z,125.10
2019-02-06T03:00:36.401Z,124.40
2019-02-06T03:01:36.364Z,112.50
2019-02-06T03:02:36.328Z,106.50
2019-02-06T03:03:36.293Z,118.80
2019-02-06T03:04:36.255Z,113.60
2019-02-06T03:05:36.222Z,110.90
2019-02-06T03:06:36.185Z,114.70
2019-02-06T03:07:36.149Z,121.40
2019-02-06T03:08:36.112Z,120.00
2019-02-06T03:09:36.076Z,124.20
2019-02-06T03:10:36.040Z,134.70
2019-02-06T03:11:36.003Z,125.50
2019-02-06T03:12:35.968Z,123.90
2019-02-06T03:13:35.930Z,114.90
2019-02-06T03:14:35.907Z,121.80
2019-02-06T03:15:35.859Z,129.50
2019-02-06T03:16:35.824Z,121.70
2019-02-06T03:17:35.790Z,119.10
2019-02-06T03:18:35.752Z,129.20
2019-02-06T03:19:35.715Z,126.30
2019-02-06T03:20:35.679Z,122.30
2019-02-06T03:21:35.644Z,127.10
2019-02-06T03:22:35.607Z,125.40
2019-02-06T03:23:35.572Z,117.80
2019-02-06T03:24:35.534Z,120.60
2019-02-06T03:25:35.499Z,128.50
2019-02-06T03:26:35.465Z,127.80
2019-02-06T03:27:35.427Z,122.30
2019-02-06T03:28:35.391Z,126.00
2019-02-06T03:29:35.369Z,140.30
2019-02-06T03:30:35.362Z,128.60
2019-02-06T03:31:35.294Z,122.40
2019-02-06T03:32:35.331Z,128.00
2019-02-06T03:33:35.213Z,121.20
2019-02-06T03:34:35.175Z,119.20
2019-02-06T03:35:35.143Z,121.90
2019-02-06T03:36:40.514Z,138.70
2019-02-06T03:37:35.073Z,124.10
2019-02-06T03:38:35.035Z,123.00
2019-02-06T03:39:34.997Z,115.20
2019-02-06T03:40:34.962Z,119.60
2019-02-06T03:41:34.929Z,116.80
2019-02-06T03:42:34.890Z,122.30
2019-02-06T03:43:34.855Z,129.80
2019-02-06T03:44:34.818Z,115.90
2019-02-06T03:45:34.781Z,123.20
2019-02-06T03:46:34.746Z,125.70
2019-02-06T03:47:34.711Z,113.00
2019-02-06T03:48:34.675Z,116.10
2019-02-06T03:49:34.638Z,125.80
2019-02-06T03:50:34.603Z,116.40
2019-02-06T03:51:34.568Z,119.50
2019-02-06T03:52:34.530Z,116.70
2019-02-06T03:53:34.495Z,120.10
2019-02-06T03:54:34.462Z,118.90
2019-02-06T03:55:34.425Z,113.60
2019-02-06T03:56:34.388Z,112.20
2019-02-06T03:57:34.353Z,108.00
2019-02-06T03:58:34.317Z,113.20
2019-02-06T03:59:34.285Z,111.20
2019-02-06T04:00:34.247Z,107.90
2019-02-06T04:01:34.208Z,117.00
2019-02-06T04:02:34.172Z,123.80
2019-02-06T04:03:34.137Z,120.20
2019-02-06T04:04:34.100Z,122.10
2019-02-06T04:05:34.069Z,122.00
2019-02-06T04:06:34.030Z,125.70
2019-02-06T04:07:33.995Z,127.80
2019-02-06T04:08:33.956Z,125.70
2019-02-06T04:09:33.922Z,123.90
2019-02-06T04:10:33.885Z,117.80
2019-02-06T04:11:33.918Z,115.40
2019-02-06T04:12:33.816Z,117.90
2019-02-06T04:13:33.780Z,127.20
2019-02-06T04:14:33.744Z,121.00
2019-02-06T04:15:33.707Z,117.40
2019-02-06T04:16:33.670Z,105.70
2019-02-06T04:17:33.639Z,120.10
2019-02-06T04:18:33.601Z,118.80
2019-02-06T04:19:33.565Z,120.30
2019-02-06T04:20:33.528Z,113.70
2019-02-06T04:21:33.493Z,114.60
2019-02-06T04:22:33.456Z,131.10
2019-02-06T04:23:33.422Z,117.30
2019-02-06T04:24:33.386Z,115.40
2019-02-06T04:25:33.350Z,113.10
2019-02-06T04:26:33.318Z,111.70
2019-02-06T04:27:33.280Z,110.10
2019-02-06T04:28:33.243Z,112.60
2019-02-06T04:29:33.209Z,112.90
2019-02-06T04:30:33.172Z,108.70
2019-02-06T04:31:33.147Z,118.10
2019-02-06T04:32:33.099Z,121.20
2019-02-06T04:33:33.065Z,114.70
2019-02-06T04:34:33.030Z,111.50
2019-02-06T04:35:32.993Z,111.30
2019-02-06T04:36:32.958Z,105.30
2019-02-06T04:37:32.922Z,99.30
2019-02-06T04:38:32.887Z,104.30
2019-02-06T04:39:32.851Z,90.80
2019-02-06T04:40:32.821Z,103.60
2019-02-06T04:41:32.779Z,97.60
2019-02-06T04:42:32.744Z,98.80
2019-02-06T04:43:32.709Z,95.00
2019-02-06T04:44:32.674Z,95.90
2019-02-06T04:45:32.637Z,92.30
2019-02-06T04:46:32.604Z,89.60
2019-02-06T04:47:32.566Z,88.20
2019-02-06T04:48:32.529Z,95.50
2019-02-06T04:49:32.499Z,89.90
2019-02-06T04:50:32.458Z,95.80
2019-02-06T04:51:32.424Z,94.90
2019-02-06T04:52:32.391Z,93.30
2019-02-06T04:53:32.351Z,93.20
2019-02-06T04:54:32.314Z,94.90
2019-02-06T04:55:32.281Z,93.80
2019-02-06T04:56:32.243Z,102.90
2019-02-06T04:57:32.209Z,98.50
2019-02-06T04:58:32.173Z,96.00
2019-02-06T04:59:32.193Z,94.70
2019-02-06T05:00:32.101Z,105.00
2019-02-06T05:01:32.068Z,107.20
2019-02-06T05:02:32.028Z,115.30
2019-02-06T05:03:31.994Z,112.30
2019-02-06T05:04:31.957Z,103.70
2019-02-06T05:05:31.922Z,100.30
2019-02-06T05:06:31.886Z,114.80
2019-02-06T05:07:31.850Z,104.40
2019-02-06T05:08:31.814Z,111.60
2019-02-06T05:09:31.777Z,116.40
2019-02-06T05:10:31.742Z,110.90
2019-02-06T05:11:31.707Z,101.30
2019-02-06T05:12:31.670Z,101.00
2019-02-06T05:13:31.634Z,103.50
2019-02-06T05:14:31.598Z,109.40
2019-02-06T05:15:31.564Z,102.80
2019-02-06T05:16:31.527Z,103.00
2019-02-06T05:17:31.490Z,99.10
2019-02-06T05:18:31.454Z,97.00
2019-02-06T05:19:31.425Z,102.10
2019-02-06T05:20:31.382Z,98.10
2019-02-06T05:21:31.347Z,93.60
2019-02-06T05:22:31.314Z,96.70
2019-02-06T05:23:31.276Z,91.60
2019-02-06T05:24:31.241Z,94.50
2019-02-06T05:25:31.203Z,95.70
2019-02-06T05:26:31.167Z,95.00
2019-02-06T05:27:31.132Z,98.10
2019-02-06T05:28:31.097Z,95.60
2019-02-06T05:29:31.059Z,93.30
2019-02-06T05:30:31.024Z,88.50
2019-02-06T05:31:30.989Z,92.30
2019-02-06T05:32:30.952Z,89.60
2019-02-06T05:33:30.915Z,86.40
2019-02-06T05:34:30.880Z,95.40
2019-02-06T05:35:30.845Z,88.00
2019-02-06T05:36:30.809Z,94.10
2019-02-06T05:37:32.354Z,89.10
2019-02-06T05:38:30.739Z,88.80
2019-02-06T05:39:30.700Z,83.10
2019-02-06T05:40:30.665Z,93.90
2019-02-06T05:41:30.628Z,96.90
2019-02-06T05:42:30.592Z,92.30
2019-02-06T05:43:30.558Z,91.90
2019-02-06T05:44:30.519Z,93.40
2019-02-06T05:45:30.486Z,90.40
2019-02-06T05:46:30.449Z,88.90
2019-02-06T05:47:30.437Z,84.90
2019-02-06T05:48:30.376Z,93.80
2019-02-06T05:49:30.339Z,95.60
2019-02-06T05:50:30.302Z,96.40
2019-02-06T05:51:30.266Z,92.70
2019-02-06T05:52:30.234Z,88.40
2019-02-06T05:53:30.193Z,89.90
2019-02-06T05:54:30.159Z,92.00
2019-02-06T05:55:30.122Z,99.70
2019-02-06T05:56:30.084Z,97.60
2019-02-06T05:57:30.051Z,99.30
2019-02-06T05:58:30.012Z,97.70
2019-02-06T05:59:29.976Z,94.30
2019-02-06T06:00:29.940Z,96.80
2019-02-06T06:01:29.902Z,102.30
2019-02-06T06:02:29.868Z,95.40
2019-02-06T06:03:29.832Z,92.90
2019-02-06T06:04:29.793Z,101.70
2019-02-06T06:05:29.757Z,95.70
2019-02-06T06:06:29.724Z,92.80
2019-02-06T06:07:29.686Z,91.90
2019-02-06T06:08:29.647Z,88.10
2019-02-06T06:09:29.615Z,89.40
2019-02-06T06:10:29.577Z,89.70
2019-02-06T06:11:29.547Z,94.70
2019-02-06T06:12:29.503Z,90.60
2019-02-06T06:13:29.517Z,86.40
2019-02-06T06:14:29.429Z,87.40
2019-02-06T06:15:29.391Z,80.80
2019-02-06T06:16:29.355Z,93.00
2019-02-06T06:17:29.319Z,93.50
2019-02-06T06:18:29.282Z,95.40
2019-02-06T06:19:29.246Z,97.20
2019-02-06T06:20:29.209Z,97.10
2019-02-06T06:21:29.172Z,98.60
2019-02-06T06:22:29.136Z,95.60
2019-02-06T06:23:29.099Z,93.90
2019-02-06T06:24:29.065Z,90.70
2019-02-06T06:25:29.033Z,96.00
2019-02-06T06:26:28.990Z,90.50
2019-02-06T06:27:28.983Z,95.40
2019-02-06T06:28:29.218Z,94.20
2019-02-06T06:29:28.891Z,92.30
2019-02-06T06:30:28.844Z,98.50
2019-02-06T06:31:28.810Z,93.30
2019-02-06T06:32:31.833Z,99.60
2019-02-06T06:33:28.733Z,102.20
2019-02-06T06:34:28.696Z,94.90
2019-02-06T06:35:28.660Z,97.00
2019-02-06T06:36:28.625Z,94.40
2019-02-06T06:37:28.588Z,98.70
2019-02-06T06:38:28.551Z,92.30
2019-02-06T06:39:28.514Z,106.80
2019-02-06T06:40:28.476Z,103.70
2019-02-06T06:41:28.440Z,95.60
2019-02-06T06:42:28.404Z,98.60
2019-02-06T06:43:28.373Z,103.40
2019-02-06T06:44:28.331Z,112.20
2019-02-06T06:45:28.293Z,102.50
2019-02-06T06:46:28.257Z,107.00
2019-02-06T06:47:28.221Z,111.40
2019-02-06T06:48:28.184Z,110.70
2019-02-06T06:49:28.147Z,115.00
2019-02-06T06:50:28.110Z,119.60
2019-02-06T06:51:28.075Z,106.20
2019-02-06T06:52:28.038Z,119.60
2019-02-06T06:53:28.001Z,112.20
2019-02-06T06:54:27.964Z,119.30
2019-02-06T06:55:27.927Z,123.70
2019-02-06T06:56:27.890Z,118.10
2019-02-06T06:57:27.853Z,129.00
2019-02-06T06:58:27.819Z,117.80
2019-02-06T06:59:27.803Z,116.10
2019-02-06T07:00:27.743Z,120.80
2019-02-06T07:01:27.710Z,114.30
2019-02-06T07:02:27.669Z,107.90
2019-02-06T07:03:27.642Z,124.60
2019-02-06T07:04:27.597Z,104.80
2019-02-06T07:05:27.560Z,112.70
2019-02-06T07:06:27.524Z,112.10
2019-02-06T07:07:27.488Z,108.80
2019-02-06T07:08:27.450Z,102.40
2019-02-06T07:09:27.420Z,98.40
2019-02-06T07:10:27.385Z,95.00
2019-02-06T07:11:27.340Z,92.50
2019-02-06T07:12:27.303Z,100.70
2019-02-06T07:13:27.266Z,93.30
2019-02-06T07:14:27.230Z,94.00
2019-02-06T07:15:27.193Z,90.60
2019-02-06T07:16:27.156Z,98.40
2019-02-06T07:17:27.123Z,89.80
2019-02-06T07:18:27.084Z,97.60
2019-02-06T07:19:27.047Z,82.10
2019-02-06T07:20:27.032Z,82.70
2019-02-06T07:21:26.974Z,86.10
2019-02-06T07:22:26.939Z,76.70
2019-02-06T07:23:26.902Z,78.30
2019-02-06T07:24:26.866Z,74.00
2019-02-06T07:25:26.830Z,71.70
2019-02-06T07:26:26.792Z,75.30
2019-02-06T07:27:26.757Z,74.80
2019-02-06T07:28:26.719Z,72.80
2019-02-06T07:29:26.686Z,66.40
2019-02-06T07:30:26.647Z,69.30
2019-02-06T07:31:26.610Z,70.50
2019-02-06T07:32:26.573Z,63.70
2019-02-06T07:33:26.538Z,63.10
2019-02-06T07:34:26.501Z,62.20
2019-02-06T07:35:26.468Z,61.70
2019-02-06T07:36:26.430Z,63.30
2019-02-06T07:37:26.393Z,62.70
2019-02-06T07:38:26.358Z,60.80
2019-02-06T07:39:26.322Z,57.30
2019-02-06T07:40:26.286Z,65.20
2019-02-06T07:41:26.252Z,58.10
2019-02-06T07:42:26.214Z,62.00
2019-02-06T07:43:26.178Z,56.40
2019-02-06T07:44:26.143Z,60.30
2019-02-06T07:45:26.105Z,58.00
2019-02-06T07:46:26.078Z,59.00
2019-02-06T07:47:26.045Z,59.70
2019-02-06T07:48:26.000Z,55.60
2019-02-06T07:49:25.963Z,55.90
2019-02-06T07:50:25.927Z,53.10
2019-02-06T07:51:25.891Z,53.80
2019-02-06T07:52:25.857Z,55.30
2019-02-06T07:53:25.819Z,56.00
2019-02-06T07:54:25.879Z,55.40
2019-02-06T07:55:25.748Z,57.30
2019-02-06T07:56:25.713Z,54.60
2019-02-06T07:57:25.677Z,55.00
2019-02-06T07:58:25.643Z,54.80
2019-02-06T07:59:25.609Z,54.10
2019-02-06T08:00:25.571Z,53.60
2019-02-06T08:01:25.536Z,55.10
2019-02-06T08:02:25.499Z,55.50
2019-02-06T08:03:25.464Z,50.30
2019-02-06T08:04:25.575Z,55.40
2019-02-06T08:05:25.396Z,55.00
2019-02-06T08:06:25.359Z,50.00
2019-02-06T08:07:25.322Z,51.60
2019-02-06T08:08:35.649Z,55.20
2019-02-06T08:09:25.305Z,53.00
2019-02-06T08:10:25.220Z,64.10
2019-02-06T08:11:25.181Z,51.20
2019-02-06T08:12:25.145Z,53.40
2019-02-06T08:13:25.109Z,53.40
2019-02-06T08:14:25.075Z,51.40
2019-02-06T08:15:25.038Z,50.20
2019-02-06T08:16:25.001Z,87.90
2019-02-06T08:17:24.966Z,75.20
2019-02-06T08:18:24.933Z,51.30
2019-02-06T08:19:24.896Z,49.50
2019-02-06T08:20:24.861Z,50.60
2019-02-06T08:21:24.825Z,50.90
2019-02-06T08:22:24.794Z,47.90
2019-02-06T08:23:24.754Z,47.20
2019-02-06T08:24:24.718Z,47.40
2019-02-06T08:25:24.687Z,49.90
2019-02-06T08:26:24.648Z,47.80
2019-02-06T08:27:26.450Z,48.20
2019-02-06T08:28:24.578Z,48.70
2019-02-06T08:29:24.543Z,47.70
2019-02-06T08:30:24.508Z,44.50
2019-02-06T08:31:24.471Z,48.10
2019-02-06T08:32:24.435Z,48.70
2019-02-06T08:33:24.401Z,46.50
2019-02-06T08:34:24.368Z,44.30
2019-02-06T08:35:24.335Z,42.40
2019-02-06T08:36:24.297Z,44.00
2019-02-06T08:37:24.262Z,43.90
2019-02-06T08:38:24.227Z,43.50
2019-02-06T08:39:24.194Z,44.80
2019-02-06T08:40:24.158Z,44.70
2019-02-06T08:41:24.123Z,41.40
2019-02-06T08:42:24.090Z,41.80
2019-02-06T08:43:24.054Z,44.00
2019-02-06T08:44:24.020Z,45.10
2019-02-06T08:45:23.990Z,44.60
2019-02-06T08:46:23.951Z,44.60
2019-02-06T08:47:23.916Z,41.80
2019-02-06T08:48:23.881Z,38.00
2019-02-06T08:49:23.847Z,41.90
2019-02-06T08:50:23.814Z,42.90
2019-02-06T08:51:23.778Z,43.50
2019-02-06T08:52:23.742Z,39.80
2019-02-06T08:53:23.708Z,40.70
2019-02-06T08:54:23.675Z,41.50
2019-02-06T08:55:23.640Z,38.00
2019-02-06T08:56:23.604Z,42.00
2019-02-06T08:57:23.570Z,40.80
2019-02-06T08:58:23.537Z,37.70
2019-02-06T08:59:23.501Z,37.20
2019-02-06T09:00:23.467Z,39.20
2019-02-06T09:01:23.434Z,38.50
2019-02-06T09:02:23.398Z,41.50
2019-02-06T09:03:23.365Z,39.80
2019-02-06T09:04:23.335Z,33.00
2019-02-06T09:05:23.295Z,34.50
2019-02-06T09:06:23.262Z,35.80
2019-02-06T09:07:23.228Z,37.00
2019-02-06T09:08:23.191Z,33.40
2019-02-06T09:09:23.160Z,36.90
2019-02-06T09:10:23.125Z,33.90
2019-02-06T09:11:23.092Z,37.20
2019-02-06T09:12:23.056Z,34.80
2019-02-06T09:13:23.022Z,34.90
2019-02-06T09:14:22.989Z,35.20
2019-02-06T09:15:22.955Z,34.50
2019-02-06T09:16:22.931Z,33.90
2019-02-06T09:17:22.887Z,35.60
2019-02-06T09:18:22.854Z,36.10
2019-02-06T09:19:22.820Z,34.30
2019-02-06T09:20:22.788Z,32.80
2019-02-06T09:21:22.751Z,34.40
2019-02-06T09:22:22.719Z,32.00
2019-02-06T09:23:22.712Z,32.30
2019-02-06T09:24:22.684Z,32.70
2019-02-06T09:25:22.617Z,33.50
2019-02-06T09:26:22.627Z,33.40
2019-02-06T09:27:22.551Z,33.90
2019-02-06T09:28:22.518Z,32.60
2019-02-06T09:29:22.485Z,36.00
2019-02-06T09:30:22.452Z,32.90
2019-02-06T09:31:22.456Z,33.00
2019-02-06T09:32:22.383Z,33.00
2019-02-06T09:33:22.351Z,34.40
2019-02-06T09:34:22.346Z,32.30
2019-02-06T09:35:22.283Z,33.60
2019-02-06T09:36:22.249Z,32.00
2019-02-06T09:37:22.215Z,33.30
2019-02-06T09:38:22.183Z,32.60
2019-02-06T09:39:22.151Z,32.40
2019-02-06T09:40:22.116Z,31.50
2019-02-06T09:41:22.083Z,31.80
2019-02-06T09:42:22.048Z,32.80
2019-02-06T09:43:22.015Z,33.70
2019-02-06T09:44:21.981Z,31.50
2019-02-06T09:45:21.947Z,31.10
2019-02-06T09:46:21.912Z,31.90
2019-02-06T09:47:21.880Z,30.30
2019-02-06T09:48:21.842Z,29.20
2019-02-06T09:49:21.810Z,31.60
2019-02-06T09:50:21.806Z,32.50
2019-02-06T09:51:21.744Z,29.90
2019-02-06T09:52:21.708Z,33.20
2019-02-06T09:53:21.675Z,30.00
2019-02-06T09:54:21.641Z,33.20
2019-02-06T09:55:21.608Z,31.50
2019-02-06T09:56:21.573Z,29.80
2019-02-06T09:57:21.542Z,30.40
2019-02-06T09:58:21.507Z,29.80
2019-02-06T09:59:21.474Z,29.00
2019-02-06T10:00:21.437Z,32.50
2019-02-06T10:01:21.716Z,31.40
2019-02-06T10:02:21.371Z,28.60
2019-02-06T10:03:21.336Z,32.80
2019-02-06T10:04:21.303Z,30.00
2019-02-06T10:05:21.268Z,31.20
2019-02-06T10:06:21.235Z,31.00
2019-02-06T10:07:21.201Z,31.70
2019-02-06T10:08:21.167Z,33.30
2019-02-06T10:09:22.945Z,32.90
2019-02-06T10:10:21.099Z,31.80
2019-02-06T10:11:21.066Z,32.90
2019-02-06T10:12:21.032Z,31.50
2019-02-06T10:13:20.997Z,31.50
2019-02-06T10:14:20.974Z,33.30
2019-02-06T10:15:20.929Z,30.20
2019-02-06T10:16:20.895Z,29.70
2019-02-06T10:17:20.861Z,31.70
2019-02-06T10:18:20.828Z,32.80
2019-02-06T10:19:20.795Z,32.00
2019-02-06T10:20:20.759Z,31.20
2019-02-06T10:21:20.731Z,32.00
2019-02-06T10:22:20.692Z,31.80
2019-02-06T10:23:20.659Z,35.50
2019-02-06T10:24:20.625Z,32.60
2019-02-06T10:25:20.590Z,31.10
2019-02-06T10:26:20.558Z,34.60
2019-02-06T10:27:20.524Z,34.20
2019-02-06T10:28:20.489Z,34.70
2019-02-06T10:29:20.456Z,35.50
2019-02-06T10:30:20.420Z,31.70
2019-02-06T10:31:20.388Z,32.60
2019-02-06T10:32:20.352Z,33.60
2019-02-06T10:33:20.352Z,32.40
2019-02-06T10:34:20.347Z,33.60
2019-02-06T10:35:20.252Z,33.10
2019-02-06T10:36:20.219Z,32.50
2019-02-06T10:37:20.182Z,33.50
2019-02-06T10:38:20.150Z,35.10
2019-02-06T10:39:20.122Z,33.50
2019-02-06T10:40:20.080Z,33.70
2019-02-06T10:41:20.047Z,33.00
2019-02-06T10:42:20.013Z,31.60
2019-02-06T10:43:31.305Z,31.70
2019-02-06T10:44:19.945Z,34.30
2019-02-06T10:45:21.035Z,33.20
2019-02-06T10:46:19.883Z,33.70
2019-02-06T10:47:19.845Z,32.90
2019-02-06T10:48:19.811Z,30.60
2019-02-06T10:49:19.777Z,30.50
2019-02-06T10:50:19.745Z,33.00
2019-02-06T10:51:19.710Z,33.60
2019-02-06T10:52:19.677Z,32.40
2019-02-06T10:53:19.642Z,32.80
2019-02-06T10:54:19.607Z,32.90
2019-02-06T10:55:19.575Z,30.70
2019-02-06T10:56:19.540Z,32.70
2019-02-06T10:57:19.506Z,33.10
2019-02-06T10:58:19.472Z,34.50
2019-02-06T10:59:19.443Z,31.80
2019-02-06T11:00:19.406Z,34.10
2019-02-06T11:01:19.371Z,29.90
2019-02-06T11:02:19.339Z,31.80
2019-02-06T11:03:19.308Z,30.80
2019-02-06T11:04:19.271Z,33.70
2019-02-06T11:05:19.237Z,31.60
2019-02-06T11:06:19.205Z,31.40
2019-02-06T11:07:19.172Z,33.60
2019-02-06T11:08:19.139Z,33.60
2019-02-06T11:09:19.104Z,31.00
2019-02-06T11:10:19.072Z,31.70
2019-02-06T11:11:19.042Z,32.10
2019-02-06T11:12:19.004Z,33.50
2019-02-06T11:13:18.970Z,32.80
2019-02-06T11:14:18.939Z,31.80
2019-02-06T11:15:18.904Z,32.10
2019-02-06T11:16:18.870Z,30.20
2019-02-06T11:17:18.837Z,30.80
2019-02-06T11:18:18.806Z,33.90
2019-02-06T11:19:18.773Z,28.80
2019-02-06T11:20:18.738Z,32.70
2019-02-06T11:21:18.704Z,31.50
2019-02-06T11:22:18.671Z,30.50
2019-02-06T11:23:18.638Z,33.30
2019-02-06T11:24:18.604Z,31.80
2019-02-06T11:25:18.572Z,31.60
2019-02-06T11:26:18.539Z,33.50
2019-02-06T11:27:18.507Z,31.70
2019-02-06T11:28:18.472Z,31.40
2019-02-06T11:29:18.438Z,34.40
2019-02-06T11:30:18.408Z,31.70
2019-02-06T11:31:18.375Z,33.20
2019-02-06T11:32:18.341Z,32.30
2019-02-06T11:33:18.305Z,31.60
2019-02-06T11:34:18.273Z,32.00
2019-02-06T11:35:18.240Z,31.90
2019-02-06T11:36:24.286Z,32.40
2019-02-06T11:37:18.173Z,31.50
2019-02-06T11:38:18.140Z,31.30
2019-02-06T11:39:18.106Z,34.30
2019-02-06T11:40:18.075Z,33.40
2019-02-06T11:41:18.046Z,31.60
2019-02-06T11:42:18.012Z,33.50
2019-02-06T11:43:17.974Z,41.20
2019-02-06T11:44:17.942Z,37.70
2019-02-06T11:45:17.909Z,51.00
2019-02-06T11:46:17.875Z,43.60
2019-02-06T11:47:17.842Z,42.10
2019-02-06T11:48:17.809Z,51.20
2019-02-06T11:49:17.775Z,49.10
2019-02-06T11:50:17.743Z,55.40
2019-02-06T11:51:17.711Z,46.20
2019-02-06T11:52:17.676Z,49.90
2019-02-06T11:53:17.646Z,43.60
2019-02-06T11:54:17.611Z,46.30
2019-02-06T11:55:17.580Z,43.70
2019-02-06T11:56:17.549Z,47.40
2019-02-06T11:57:17.514Z,43.30
2019-02-06T11:58:17.480Z,37.10
2019-02-06T11:59:17.447Z,33.40
2019-02-06T12:00:17.413Z,31.00
2019-02-06T12:01:17.380Z,32.70
2019-02-06T12:02:17.347Z,36.10
2019-02-06T12:03:17.315Z,37.40
2019-02-06T12:04:17.281Z,33.30
2019-02-06T12:05:17.249Z,32.90
2019-02-06T12:06:17.217Z,31.10
2019-02-06T12:07:17.185Z,32.10
2019-02-06T12:08:17.151Z,30.50
2019-02-06T12:09:17.119Z,34.40
2019-02-06T12:10:17.092Z,31.70
2019-02-06T12:11:17.052Z,29.00
2019-02-06T12:12:17.019Z,29.60
2019-02-06T12:13:16.987Z,29.50
2019-02-06T12:14:16.956Z,29.80
2019-02-06T12:15:16.922Z,29.80
2019-02-06T12:16:16.913Z,30.00
2019-02-06T12:17:16.855Z,28.70
2019-02-06T12:18:16.823Z,29.60
2019-02-06T12:19:16.790Z,27.90
2019-02-06T12:20:16.759Z,30.10
2019-02-06T12:21:18.082Z,27.10
2019-02-06T12:22:16.692Z,31.20
2019-02-06T12:23:16.663Z,28.80
2019-02-06T12:24:16.628Z,32.20
2019-02-06T12:25:16.595Z,31.40
2019-02-06T12:26:16.563Z,26.50
2019-02-06T12:27:16.532Z,29.00
2019-02-06T12:28:16.499Z,29.40
2019-02-06T12:29:16.467Z,26.80
2019-02-06T12:30:16.437Z,26.40
2019-02-06T12:31:16.403Z,25.00
2019-02-06T12:32:16.383Z,25.30
2019-02-06T12:33:16.337Z,25.10
2019-02-06T12:34:16.308Z,24.10
2019-02-06T12:35:16.273Z,27.00
2019-02-06T12:36:16.241Z,24.70
2019-02-06T12:37:16.209Z,26.00
2019-02-06T12:38:16.177Z,27.40
2019-02-06T12:39:16.145Z,28.00
2019-02-06T12:40:21.609Z,25.40
2019-02-06T12:41:16.079Z,25.20
2019-02-06T12:42:16.049Z,24.00